createdAt,value
2023-07-10T00:00:57.796Z,21.50
2023-07-10T00:01:57.775Z,20.00
2023-07-10T00:02:57.860Z,21.60
2023-07-10T00:03:57.855Z,21.50
2023-07-10T00:04:57.763Z,19.20
2023-07-10T00:05:57.750Z,21.30
2023-07-10T00:06:57.684Z,21.20
2023-07-10T00:07:57.675Z,20.40
2023-07-10T00:08:57.768Z,22.00
2023-07-10T00:09:57.695Z,21.10
2023-07-10T00:10:57.670Z,23.20
2023-07-10T00:11:57.658Z,22.30
2023-07-10T00:12:57.666Z,21.10
2023-07-10T00:13:57.663Z,21.20
2023-07-10T00:14:57.627Z,25.30
2023-07-10T00:15:57.673Z,20.20
2023-07-10T00:16:57.688Z,22.30
2023-07-10T00:17:57.582Z,24.10
2023-07-10T00:18:57.545Z,22.40
2023-07-10T00:19:57.560Z,23.90
2023-07-10T00:20:57.561Z,21.30
2023-07-10T00:21:57.569Z,20.90
2023-07-10T00:22:57.552Z,20.90
2023-07-10T00:23:57.548Z,22.00
2023-07-10T00:24:57.544Z,23.10
2023-07-10T00:25:57.511Z,20.50
2023-07-10T00:26:57.555Z,23.90
2023-07-10T00:27:57.511Z,20.90
2023-07-10T00:28:57.444Z,22.50
2023-07-10T00:29:57.509Z,22.50
2023-07-10T00:30:57.535Z,22.10
2023-07-10T00:31:57.429Z,23.50
2023-07-10T00:32:57.478Z,20.70
2023-07-10T00:33:57.451Z,23.60
2023-07-10T00:34:57.431Z,21.50
2023-07-10T00:35:57.434Z,21.60
2023-07-10T00:36:57.400Z,23.00
2023-07-10T00:37:57.432Z,24.10
2023-07-10T00:38:57.327Z,22.90
2023-07-10T00:39:57.395Z,24.50
2023-07-10T00:40:57.321Z,23.40
2023-07-10T00:41:57.315Z,24.70
2023-07-10T00:42:57.319Z,23.00
2023-07-10T00:43:57.312Z,23.30
2023-07-10T00:44:57.318Z,25.00
2023-07-10T00:45:57.407Z,22.90
2023-07-10T00:46:57.353Z,23.30
2023-07-10T00:47:57.339Z,23.80
2023-07-10T00:48:57.282Z,22.60
2023-07-10T00:49:57.287Z,25.50
2023-07-10T00:50:57.208Z,22.80
2023-07-10T00:51:57.198Z,21.70
2023-07-10T00:52:57.289Z,24.10
2023-07-10T00:53:57.195Z,24.20
2023-07-10T00:54:57.194Z,25.20
2023-07-10T00:55:57.282Z,25.80
2023-07-10T00:56:57.198Z,25.50
2023-07-10T00:57:57.194Z,26.60
2023-07-10T00:58:57.166Z,24.90
2023-07-10T00:59:57.194Z,24.60
2023-07-10T01:00:57.118Z,26.20
2023-07-10T01:01:57.152Z,26.50
2023-07-10T01:02:57.218Z,24.20
2023-07-10T01:03:57.079Z,26.70
2023-07-10T01:04:57.084Z,24.20
2023-07-10T01:05:57.078Z,27.10
2023-07-10T01:06:57.166Z,25.60
2023-07-10T01:07:57.088Z,23.90
2023-07-10T01:08:57.054Z,29.50
2023-07-10T01:09:57.055Z,25.20
2023-07-10T01:10:57.049Z,26.50
2023-07-10T01:11:56.973Z,26.50
2023-07-10T01:12:56.995Z,26.00
2023-07-10T01:13:56.984Z,24.90
2023-07-10T01:14:56.963Z,27.70
2023-07-10T01:15:57.071Z,26.50
2023-07-10T01:16:56.990Z,26.30
2023-07-10T01:17:56.995Z,25.10
2023-07-10T01:18:56.964Z,26.80
2023-07-10T01:19:56.966Z,26.70
2023-07-10T01:20:56.935Z,27.50
2023-07-10T01:21:56.930Z,24.40
2023-07-10T01:22:56.932Z,26.70
2023-07-10T01:23:56.900Z,25.60
2023-07-10T01:24:56.854Z,24.40
2023-07-10T01:25:56.858Z,25.40
2023-07-10T01:26:56.860Z,26.20
2023-07-10T01:27:56.934Z,27.10
2023-07-10T01:28:56.863Z,25.20
2023-07-10T01:29:56.865Z,25.20
2023-07-10T01:30:56.847Z,26.10
2023-07-10T01:31:56.812Z,27.50
2023-07-10T01:32:56.885Z,26.10
2023-07-10T01:33:56.750Z,26.40
2023-07-10T01:34:56.745Z,27.60
2023-07-10T01:35:56.723Z,26.40
2023-07-10T01:36:56.721Z,25.20
2023-07-10T01:37:56.751Z,29.60
2023-07-10T01:38:56.729Z,27.00
2023-07-10T01:39:56.732Z,26.00
2023-07-10T01:40:56.726Z,27.50
2023-07-10T01:41:56.693Z,27.90
2023-07-10T01:42:56.702Z,28.90
2023-07-10T01:43:56.703Z,28.90
2023-07-10T01:44:56.620Z,30.70
2023-07-10T01:45:56.604Z,29.30
2023-07-10T01:46:56.647Z,30.90
2023-07-10T01:47:56.899Z,33.20
2023-07-10T01:48:56.720Z,32.00
2023-07-10T01:49:56.611Z,33.30
2023-07-10T01:50:56.621Z,32.60
2023-07-10T01:51:56.609Z,31.10
2023-07-10T01:52:56.613Z,32.20
2023-07-10T01:53:56.585Z,31.50
2023-07-10T01:54:57.320Z,27.10
2023-07-10T01:55:56.492Z,30.60
2023-07-10T01:56:56.542Z,32.30
2023-07-10T01:57:56.520Z,29.70
2023-07-10T01:58:56.489Z,27.10
2023-07-10T01:59:56.500Z,29.50
2023-07-10T02:00:56.495Z,27.40
2023-07-10T02:01:56.555Z,28.30
2023-07-10T02:02:56.517Z,30.20
2023-07-10T02:03:56.503Z,30.60
2023-07-10T02:04:56.458Z,29.80
2023-07-10T02:05:56.387Z,25.50
2023-07-10T02:06:56.412Z,29.80
2023-07-10T02:07:56.459Z,28.50
2023-07-10T02:08:56.369Z,29.00
2023-07-10T02:09:56.380Z,29.60
2023-07-10T02:10:56.404Z,25.50
2023-07-10T02:11:56.387Z,27.90
2023-07-10T02:12:56.459Z,28.40
2023-07-10T02:13:56.364Z,26.80
2023-07-10T02:14:56.342Z,32.30
2023-07-10T02:15:56.350Z,28.00
2023-07-10T02:16:56.302Z,27.90
2023-07-10T02:17:56.377Z,30.50
2023-07-10T02:18:56.349Z,28.40
2023-07-10T02:19:56.347Z,28.10
2023-07-10T02:20:56.250Z,27.20
2023-07-10T02:21:56.268Z,27.50
2023-07-10T02:22:56.267Z,27.70
2023-07-10T02:23:56.260Z,27.10
2023-07-10T02:24:56.231Z,26.30
2023-07-10T02:25:56.221Z,26.30
2023-07-10T02:26:56.260Z,25.60
2023-07-10T02:27:56.145Z,23.40
2023-07-10T02:28:56.149Z,23.40
2023-07-10T02:29:56.154Z,21.60
2023-07-10T02:30:56.138Z,22.20
2023-07-10T02:31:56.245Z,21.10
2023-07-10T02:32:56.169Z,22.90
2023-07-10T02:33:56.162Z,21.40
2023-07-10T02:34:56.144Z,21.00
2023-07-10T02:35:56.142Z,20.20
2023-07-10T02:36:56.105Z,20.20
2023-07-10T02:37:56.105Z,18.30
2023-07-10T02:38:56.047Z,18.90
2023-07-10T02:39:56.017Z,19.70
2023-07-10T02:40:56.027Z,20.20
2023-07-10T02:41:56.127Z,18.20
2023-07-10T02:42:56.019Z,16.50
2023-07-10T02:43:56.026Z,19.20
2023-07-10T02:44:56.024Z,19.90
2023-07-10T02:45:56.061Z,16.20
2023-07-10T02:46:55.993Z,17.40
2023-07-10T02:47:56.038Z,19.70
2023-07-10T02:48:55.992Z,20.40
2023-07-10T02:49:55.920Z,16.40
2023-07-10T02:50:55.902Z,15.40
2023-07-10T02:51:55.912Z,15.00
2023-07-10T02:52:55.911Z,16.20
2023-07-10T02:53:56.000Z,15.30
2023-07-10T02:54:55.911Z,15.00
2023-07-10T02:55:55.922Z,17.90
2023-07-10T02:56:55.884Z,13.80
2023-07-10T02:57:55.896Z,16.60
2023-07-10T02:58:55.887Z,15.80
2023-07-10T02:59:55.883Z,14.90
2023-07-10T03:00:55.823Z,16.20
2023-07-10T03:01:55.803Z,17.60
2023-07-10T03:02:55.907Z,13.50
2023-07-10T03:03:55.794Z,16.00
2023-07-10T03:04:55.911Z,15.30
2023-07-10T03:05:55.798Z,13.70
2023-07-10T03:06:55.885Z,13.90
2023-07-10T03:07:55.762Z,14.20
2023-07-10T03:08:55.776Z,16.40
2023-07-10T03:09:55.818Z,14.90
2023-07-10T03:10:55.770Z,15.80
2023-07-10T03:11:55.682Z,13.30
2023-07-10T03:12:55.683Z,16.30
2023-07-10T03:13:55.726Z,16.50
2023-07-10T03:14:56.466Z,13.60
2023-07-10T03:15:55.704Z,13.20
2023-07-10T03:16:55.647Z,15.80
2023-07-10T03:17:55.715Z,15.70
2023-07-10T03:18:55.578Z,16.10
2023-07-10T03:19:55.574Z,13.80
2023-07-10T03:20:55.566Z,11.00
2023-07-10T03:21:55.647Z,15.00
2023-07-10T03:22:55.556Z,15.60
2023-07-10T03:23:55.587Z,14.30
2023-07-10T03:24:55.607Z,16.00
2023-07-10T03:25:55.581Z,12.20
2023-07-10T03:26:55.817Z,15.70
2023-07-10T03:27:55.570Z,14.00
2023-07-10T03:28:55.458Z,11.50
2023-07-10T03:29:55.444Z,12.80
2023-07-10T03:30:55.566Z,14.10
2023-07-10T03:31:55.457Z,12.00
2023-07-10T03:32:55.529Z,13.10
2023-07-10T03:33:55.447Z,13.30
2023-07-10T03:34:55.440Z,13.90
2023-07-10T03:35:55.448Z,11.70
2023-07-10T03:36:56.306Z,13.80
2023-07-10T03:37:55.410Z,12.80
2023-07-10T03:38:55.339Z,11.70
2023-07-10T03:39:55.329Z,13.00
2023-07-10T03:40:55.413Z,15.50
2023-07-10T03:41:55.334Z,16.20
2023-07-10T03:42:55.367Z,16.00
2023-07-10T03:43:55.413Z,14.40
2023-07-10T03:44:55.331Z,13.50
2023-07-10T03:45:55.302Z,12.80
2023-07-10T03:46:55.341Z,14.30
2023-07-10T03:47:55.242Z,13.00
2023-07-10T03:48:55.295Z,14.50
2023-07-10T03:49:55.223Z,12.80
2023-07-10T03:50:55.214Z,14.20
2023-07-10T03:51:55.684Z,12.80
2023-07-10T03:52:55.222Z,14.10
2023-07-10T03:53:55.240Z,13.10
2023-07-10T03:54:55.219Z,14.00
2023-07-10T03:55:55.512Z,13.60
2023-07-10T03:56:55.212Z,14.20
2023-07-10T03:57:55.215Z,14.70
2023-07-10T03:58:55.186Z,13.80
2023-07-10T03:59:55.112Z,14.90
2023-07-10T04:00:55.156Z,13.20
2023-07-10T04:01:55.178Z,14.00
2023-07-10T04:02:55.221Z,14.40
2023-07-10T04:03:55.211Z,11.30
2023-07-10T04:04:55.103Z,13.30
2023-07-10T04:05:55.094Z,13.80
2023-07-10T04:06:55.130Z,13.30
2023-07-10T04:07:55.063Z,12.50
2023-07-10T04:08:55.094Z,11.80
2023-07-10T04:09:55.000Z,13.90
2023-07-10T04:10:54.997Z,15.00
2023-07-10T04:11:55.062Z,14.00
2023-07-10T04:12:54.984Z,14.40
2023-07-10T04:13:55.055Z,13.30
2023-07-10T04:14:55.001Z,12.80
2023-07-10T04:15:55.062Z,13.90
2023-07-10T04:16:55.028Z,11.90
2023-07-10T04:17:55.020Z,15.00
2023-07-10T04:18:54.962Z,14.10
2023-07-10T04:19:54.949Z,11.50
2023-07-10T04:20:54.901Z,13.80
2023-07-10T04:21:54.877Z,13.60
2023-07-10T04:22:54.857Z,13.00
2023-07-10T04:23:54.948Z,12.30
2023-07-10T04:24:54.964Z,13.00
2023-07-10T04:25:54.871Z,15.60
2023-07-10T04:26:54.883Z,14.60
2023-07-10T04:27:54.869Z,14.00
2023-07-10T04:28:54.843Z,14.20
2023-07-10T04:29:54.867Z,14.20
2023-07-10T04:30:54.901Z,14.90
2023-07-10T04:31:54.828Z,12.80
2023-07-10T04:32:54.828Z,13.40
2023-07-10T04:33:54.748Z,15.60
2023-07-10T04:34:54.738Z,14.70
2023-07-10T04:35:54.751Z,14.80
2023-07-10T04:36:54.841Z,15.00
2023-07-10T04:37:54.769Z,13.90
2023-07-10T04:38:54.861Z,15.00
2023-07-10T04:39:54.762Z,12.70
2023-07-10T04:40:54.722Z,14.90
2023-07-10T04:41:54.644Z,13.80
2023-07-10T04:42:54.640Z,16.00
2023-07-10T04:43:54.639Z,13.60
2023-07-10T04:44:54.711Z,13.10
2023-07-10T04:45:54.623Z,13.50
2023-07-10T04:46:54.716Z,14.90
2023-07-10T04:47:54.698Z,14.40
2023-07-10T04:48:54.633Z,12.70
2023-07-10T04:49:54.624Z,15.20
2023-07-10T04:50:54.629Z,14.20
2023-07-10T04:51:54.611Z,15.50
2023-07-10T04:52:54.600Z,15.50
2023-07-10T04:53:54.600Z,15.30
2023-07-10T04:54:54.597Z,13.70
2023-07-10T04:55:54.517Z,14.00
2023-07-10T04:56:54.599Z,12.70
2023-07-10T04:57:54.526Z,15.90
2023-07-10T04:58:54.547Z,15.80
2023-07-10T04:59:54.615Z,16.60
2023-07-10T05:00:54.620Z,15.00
2023-07-10T05:01:54.653Z,14.60
2023-07-10T05:02:54.506Z,13.70
2023-07-10T05:03:54.419Z,13.70
2023-07-10T05:04:54.426Z,15.60
2023-07-10T05:05:54.402Z,15.20
2023-07-10T05:06:54.396Z,17.30
2023-07-10T05:07:54.528Z,15.40
2023-07-10T05:08:54.412Z,16.20
2023-07-10T05:09:54.393Z,15.90
2023-07-10T05:10:54.396Z,19.20
2023-07-10T05:11:54.414Z,13.40
2023-07-10T05:12:54.392Z,14.90
2023-07-10T05:13:54.439Z,17.80
2023-07-10T05:14:54.302Z,15.50
2023-07-10T05:15:54.320Z,17.10
2023-07-10T05:16:55.646Z,15.90
2023-07-10T05:17:54.292Z,12.80
2023-07-10T05:18:54.376Z,17.10
2023-07-10T05:19:54.367Z,15.00
2023-07-10T05:20:54.298Z,17.60
2023-07-10T05:21:54.280Z,16.60
2023-07-10T05:22:54.247Z,15.20
2023-07-10T05:23:54.245Z,14.10
2023-07-10T05:24:54.287Z,12.80
2023-07-10T05:25:54.166Z,14.50
2023-07-10T05:26:54.252Z,15.40
2023-07-10T05:27:54.164Z,13.70
2023-07-10T05:28:54.166Z,14.40
2023-07-10T05:29:54.191Z,16.30
2023-07-10T05:30:54.255Z,13.80
2023-07-10T05:31:54.203Z,15.00
2023-07-10T05:32:54.189Z,14.10
2023-07-10T05:33:54.142Z,12.10
2023-07-10T05:34:54.135Z,13.70
2023-07-10T05:35:54.131Z,13.90
2023-07-10T05:36:54.163Z,15.30
2023-07-10T05:37:54.050Z,15.10
2023-07-10T05:38:54.046Z,12.30
2023-07-10T05:39:54.055Z,13.60
2023-07-10T05:40:54.052Z,14.20
2023-07-10T05:41:54.049Z,14.60
2023-07-10T05:42:54.147Z,14.30
2023-07-10T05:43:54.050Z,13.90
2023-07-10T05:44:54.006Z,15.10
2023-07-10T05:45:54.053Z,14.70
2023-07-10T05:46:53.945Z,13.30
2023-07-10T05:47:53.968Z,14.00
2023-07-10T05:48:54.038Z,12.70
2023-07-10T05:49:54.005Z,14.90
2023-07-10T05:50:53.929Z,14.60
2023-07-10T05:51:53.941Z,14.10
2023-07-10T05:54:05.169Z,14.60
2023-07-10T05:55:04.975Z,15.60
2023-07-10T05:56:05.399Z,11.50
2023-07-10T05:57:05.024Z,14.20
2023-07-10T05:58:04.966Z,12.50
2023-07-10T05:59:05.061Z,15.00
2023-07-10T06:00:04.986Z,15.00
2023-07-10T06:01:05.050Z,13.20
2023-07-10T06:02:05.168Z,14.40
2023-07-10T06:03:05.039Z,15.20
2023-07-10T06:04:05.078Z,14.60
2023-07-10T06:05:04.971Z,13.50
2023-07-10T06:06:05.238Z,14.80
2023-07-10T06:07:04.908Z,14.50
2023-07-10T06:08:04.900Z,12.70
2023-07-10T06:09:04.865Z,12.30
2023-07-10T06:10:04.888Z,13.70
2023-07-10T06:11:04.932Z,15.20
2023-07-10T06:12:04.943Z,14.10
2023-07-10T06:13:04.851Z,15.90
2023-07-10T06:14:04.965Z,13.20
2023-07-10T06:15:04.824Z,12.30
2023-07-10T06:16:05.210Z,15.20
2023-07-10T06:17:04.752Z,16.60
2023-07-10T06:18:04.865Z,15.90
2023-07-10T06:19:04.751Z,16.00
2023-07-10T06:20:04.822Z,15.20
2023-07-10T06:21:04.748Z,14.90
2023-07-10T06:22:04.739Z,13.70
2023-07-10T06:23:04.822Z,13.40
2023-07-10T06:24:04.714Z,15.00
2023-07-10T06:25:04.733Z,13.10
2023-07-10T06:26:05.063Z,15.60
2023-07-10T06:27:04.698Z,13.40
2023-07-10T06:28:04.627Z,15.40
2023-07-10T06:29:04.612Z,14.90
2023-07-10T06:30:04.613Z,14.20
2023-07-10T06:31:04.702Z,15.10
2023-07-10T06:32:04.707Z,12.60
2023-07-10T06:33:04.698Z,13.30
2023-07-10T06:34:04.640Z,12.60
2023-07-10T06:35:04.622Z,13.60
2023-07-10T06:36:04.799Z,11.90
2023-07-10T06:37:04.589Z,11.20
2023-07-10T06:38:04.586Z,12.40
2023-07-10T06:39:04.503Z,10.50
2023-07-10T06:40:04.513Z,11.40
2023-07-10T06:41:04.503Z,10.60
2023-07-10T06:42:04.591Z,10.70
2023-07-10T06:43:04.501Z,10.90
2023-07-10T06:44:04.500Z,10.90
2023-07-10T06:45:04.506Z,9.60
2023-07-10T06:46:04.906Z,10.20
2023-07-10T06:47:04.469Z,9.00
2023-07-10T06:48:04.518Z,12.00
2023-07-10T06:49:04.513Z,11.60
2023-07-10T06:50:05.472Z,9.80
2023-07-10T06:51:04.473Z,9.30
2023-07-10T06:52:04.419Z,8.80
2023-07-10T06:53:18.913Z,11.10
2023-07-10T06:54:04.473Z,10.80
2023-07-10T06:55:04.385Z,12.00
2023-07-10T06:56:04.743Z,16.70
2023-07-10T06:57:04.364Z,15.60
2023-07-10T06:58:04.360Z,11.40
2023-07-10T06:59:04.404Z,11.40
2023-07-10T07:00:04.340Z,10.40
2023-07-10T07:01:04.420Z,10.40
2023-07-10T07:02:06.127Z,9.70
2023-07-10T07:03:04.403Z,10.70
2023-07-10T07:04:04.375Z,9.40
2023-07-10T07:05:04.267Z,10.50
2023-07-10T07:06:04.534Z,9.40
2023-07-10T07:07:04.278Z,9.10
2023-07-10T07:08:04.236Z,9.00
2023-07-10T07:09:04.286Z,8.90
2023-07-10T07:10:04.182Z,9.90
2023-07-10T07:11:04.164Z,8.10
2023-07-10T07:12:04.161Z,9.70
2023-07-10T07:13:04.181Z,8.70
2023-07-10T07:14:04.259Z,8.50
2023-07-10T07:15:04.149Z,9.30
2023-07-10T07:16:04.377Z,7.70
2023-07-10T07:17:04.181Z,8.30
2023-07-10T07:18:04.298Z,7.30
2023-07-10T07:19:11.870Z,8.70
2023-07-10T07:20:04.129Z,8.70
2023-07-10T07:21:04.123Z,11.60
2023-07-10T07:22:04.062Z,12.50
2023-07-10T07:23:04.120Z,9.80
2023-07-10T07:24:04.043Z,11.50
2023-07-10T07:25:04.140Z,10.80
2023-07-10T07:26:04.345Z,9.20
2023-07-10T07:27:04.077Z,9.20
2023-07-10T07:28:04.044Z,8.80
2023-07-10T07:29:04.009Z,10.70
2023-07-10T07:30:04.140Z,8.30
2023-07-10T07:31:04.079Z,8.70
2023-07-10T07:32:04.052Z,7.60
2023-07-10T07:33:03.988Z,7.70
2023-07-10T07:34:04.005Z,7.80
2023-07-10T07:35:03.933Z,6.00
2023-07-10T07:36:04.375Z,8.90
2023-07-10T07:37:03.917Z,7.80
2023-07-10T07:38:03.935Z,8.10
2023-07-10T07:39:04.012Z,7.50
2023-07-10T07:40:03.931Z,7.80
2023-07-10T07:41:03.885Z,9.00
2023-07-10T07:42:03.905Z,8.60
2023-07-10T07:43:03.819Z,6.90
2023-07-10T07:44:03.819Z,7.30
2023-07-10T07:45:03.889Z,7.10
2023-07-10T07:46:04.280Z,6.90
2023-07-10T07:47:03.960Z,6.90
2023-07-10T07:48:03.896Z,7.60
2023-07-10T07:49:05.690Z,7.40
2023-07-10T07:50:03.800Z,9.50
2023-07-10T07:51:03.811Z,8.10
2023-07-10T07:52:03.801Z,7.10
2023-07-10T07:53:03.793Z,8.60
2023-07-10T07:54:03.807Z,13.90
2023-07-10T07:55:03.704Z,9.70
2023-07-10T07:56:04.023Z,8.80
2023-07-10T07:57:03.788Z,9.20
2023-07-10T07:58:03.780Z,9.40
2023-07-10T07:59:03.683Z,8.10
2023-07-10T08:00:03.734Z,7.90
2023-07-10T08:01:03.693Z,6.80
2023-07-10T08:02:03.650Z,7.10
2023-07-10T08:03:03.722Z,7.20
2023-07-10T08:04:03.763Z,8.80
2023-07-10T08:05:04.533Z,7.40
2023-07-10T08:06:03.740Z,6.80
2023-07-10T08:07:03.563Z,5.80
2023-07-10T08:08:03.680Z,5.70
2023-07-10T08:09:03.591Z,8.90
2023-07-10T08:10:03.595Z,8.40
2023-07-10T08:11:03.655Z,6.20
2023-07-10T08:12:04.173Z,6.70
2023-07-10T08:13:03.550Z,9.00
2023-07-10T08:14:03.559Z,6.80
2023-07-10T08:15:03.549Z,6.60
2023-07-10T08:16:03.790Z,6.50
2023-07-10T08:17:04.153Z,8.40
2023-07-10T08:18:03.544Z,7.30
2023-07-10T08:19:03.540Z,9.60
2023-07-10T08:20:03.471Z,10.00
2023-07-10T08:21:03.471Z,7.80
2023-07-10T08:22:03.454Z,9.00
2023-07-10T08:23:03.451Z,8.50
2023-07-10T08:24:03.476Z,7.40
2023-07-10T08:25:03.462Z,7.60
2023-07-10T08:26:03.618Z,6.40
2023-07-10T08:27:03.356Z,8.70
2023-07-10T08:28:03.334Z,9.00
2023-07-10T08:29:03.345Z,8.80
2023-07-10T08:30:03.422Z,8.20
2023-07-10T08:31:03.409Z,8.60
2023-07-10T08:32:03.348Z,8.20
2023-07-10T08:33:03.366Z,7.00
2023-07-10T08:34:03.305Z,8.20
2023-07-10T08:35:03.340Z,8.30
2023-07-10T08:36:03.508Z,7.60
2023-07-10T08:37:03.242Z,7.30
2023-07-10T08:38:03.233Z,7.20
2023-07-10T08:39:03.214Z,8.60
2023-07-10T08:40:03.326Z,7.60
2023-07-10T08:41:03.309Z,7.00
2023-07-10T08:42:03.237Z,7.10
2023-07-10T08:43:03.260Z,7.40
2023-07-10T08:44:03.219Z,9.20
2023-07-10T08:45:03.185Z,7.30
2023-07-10T08:46:03.445Z,5.40
2023-07-10T08:47:03.307Z,6.60
2023-07-10T08:48:03.173Z,7.90
2023-07-10T08:49:03.199Z,5.80
2023-07-10T08:50:03.122Z,5.90
2023-07-10T08:51:03.198Z,6.00
2023-07-10T08:52:03.205Z,7.10
2023-07-10T08:53:03.099Z,6.80
2023-07-10T08:54:03.131Z,7.80
2023-07-10T08:55:03.109Z,7.20
2023-07-10T08:56:03.540Z,5.20
2023-07-10T08:57:03.070Z,7.00
2023-07-10T08:58:03.079Z,7.80
2023-07-10T08:59:03.072Z,7.00
2023-07-10T09:00:03.069Z,5.50
2023-07-10T09:01:02.994Z,8.00
2023-07-10T09:02:03.028Z,7.20
2023-07-10T09:03:03.022Z,7.80
2023-07-10T09:04:03.113Z,8.70
2023-07-10T09:05:02.996Z,5.60
2023-07-10T09:06:03.223Z,5.30
2023-07-10T09:07:02.972Z,6.10
2023-07-10T09:08:02.949Z,6.60
2023-07-10T09:09:02.957Z,13.80
2023-07-10T09:10:02.956Z,8.50
2023-07-10T09:11:02.880Z,9.00
2023-07-10T09:12:02.867Z,7.20
2023-07-10T09:13:02.892Z,8.70
2023-07-10T09:14:03.064Z,7.40
2023-07-10T09:15:02.875Z,9.60
2023-07-10T09:16:03.054Z,7.30
2023-07-10T09:17:03.011Z,7.50
2023-07-10T09:18:02.834Z,10.00
2023-07-10T09:19:02.836Z,7.40
2023-07-10T09:20:02.902Z,6.90
2023-07-10T09:21:02.763Z,7.30
2023-07-10T09:22:02.754Z,6.50
2023-07-10T09:23:02.797Z,7.50
2023-07-10T09:24:02.748Z,7.20
2023-07-10T09:25:02.755Z,6.20
2023-07-10T09:26:03.195Z,10.50
2023-07-10T09:27:02.842Z,8.30
2023-07-10T09:28:02.733Z,8.20
2023-07-10T09:29:02.717Z,6.60
2023-07-10T09:30:02.730Z,7.40
2023-07-10T09:31:02.666Z,7.80
2023-07-10T09:32:02.806Z,6.40
2023-07-10T09:33:02.807Z,8.90
2023-07-10T09:34:02.736Z,7.70
2023-07-10T09:35:02.730Z,8.30
2023-07-10T09:36:03.004Z,7.60
2023-07-10T09:37:03.868Z,9.60
2023-07-10T09:38:02.737Z,8.90
2023-07-10T09:39:02.635Z,6.90
2023-07-10T09:40:02.607Z,6.70
2023-07-10T09:41:02.612Z,7.80
2023-07-10T09:42:02.626Z,9.50
2023-07-10T09:43:02.526Z,8.90
2023-07-10T09:44:02.517Z,6.70
2023-07-10T09:45:02.525Z,7.20
2023-07-10T09:46:02.594Z,8.50
2023-07-10T09:47:02.671Z,6.20
2023-07-10T09:48:02.553Z,7.50
2023-07-10T09:49:02.619Z,6.70
2023-07-10T09:50:02.520Z,7.60
2023-07-10T09:51:02.491Z,8.60
2023-07-10T09:52:02.490Z,9.40
2023-07-10T09:53:02.494Z,8.10
2023-07-10T09:54:02.524Z,6.10
2023-07-10T09:55:02.403Z,8.80
2023-07-10T09:56:02.646Z,10.00
2023-07-10T09:57:02.407Z,9.30
2023-07-10T09:58:02.497Z,5.80
2023-07-10T09:59:02.498Z,7.50
2023-07-10T10:00:02.493Z,7.80
2023-07-10T10:01:02.414Z,7.80
2023-07-10T10:02:02.410Z,7.70
2023-07-10T10:03:02.437Z,7.00
2023-07-10T10:04:02.368Z,7.20
2023-07-10T10:05:02.374Z,9.20
2023-07-10T10:06:02.304Z,8.90
2023-07-10T10:07:02.392Z,8.60
2023-07-10T10:08:02.285Z,7.50
2023-07-10T10:09:02.296Z,7.10
2023-07-10T10:10:02.364Z,6.90
2023-07-10T10:11:02.315Z,6.20
2023-07-10T10:12:02.264Z,5.60
2023-07-10T10:13:02.300Z,8.00
2023-07-10T10:14:02.273Z,7.20
2023-07-10T10:15:02.259Z,6.50
2023-07-10T10:16:02.301Z,7.60
2023-07-10T10:17:02.172Z,7.20
2023-07-10T10:18:02.382Z,7.40
2023-07-10T10:19:02.338Z,6.40
2023-07-10T10:20:02.179Z,6.50
2023-07-10T10:21:02.194Z,7.30
2023-07-10T10:22:02.175Z,6.70
2023-07-10T10:23:02.132Z,8.80
2023-07-10T10:24:02.266Z,7.50
2023-07-10T10:25:02.170Z,8.20
2023-07-10T10:26:02.248Z,7.30
2023-07-10T10:27:02.148Z,9.10
2023-07-10T10:28:02.048Z,7.80
2023-07-10T10:29:02.085Z,7.10
2023-07-10T10:30:02.402Z,8.20
2023-07-10T10:31:02.084Z,6.30
2023-07-10T10:32:02.112Z,6.50
2023-07-10T10:33:02.137Z,8.10
2023-07-10T10:34:02.022Z,7.30
2023-07-10T10:35:02.023Z,6.20
2023-07-10T10:36:02.569Z,6.80
2023-07-10T10:37:02.059Z,7.40
2023-07-10T10:38:02.055Z,7.00
2023-07-10T10:39:02.029Z,6.70
2023-07-10T10:40:01.968Z,7.00
2023-07-10T10:41:01.959Z,7.70
2023-07-10T10:42:01.978Z,6.40
2023-07-10T10:43:01.956Z,8.40
2023-07-10T10:44:01.952Z,9.30
2023-07-10T10:45:01.922Z,7.20
2023-07-10T10:46:01.924Z,6.00
2023-07-10T10:47:01.913Z,8.60
2023-07-10T10:48:01.848Z,9.10
2023-07-10T10:49:01.906Z,6.70
2023-07-10T10:50:01.914Z,8.70
2023-07-10T10:51:01.858Z,7.00
2023-07-10T10:52:01.826Z,5.70
2023-07-10T10:53:01.912Z,6.50
2023-07-10T10:54:01.837Z,6.20
2023-07-10T10:55:01.818Z,5.70
2023-07-10T10:56:01.838Z,7.50
2023-07-10T10:57:01.794Z,6.90
2023-07-10T10:58:01.794Z,5.80
2023-07-10T10:59:01.721Z,6.80
2023-07-10T11:00:01.751Z,6.80
2023-07-10T11:01:01.840Z,5.70
2023-07-10T11:02:01.712Z,6.80
2023-07-10T11:03:01.819Z,6.70
2023-07-10T11:04:01.729Z,6.00
2023-07-10T11:05:01.715Z,6.30
2023-07-10T11:06:01.748Z,6.60
2023-07-10T11:07:01.670Z,6.00
2023-07-10T11:08:01.675Z,7.70
2023-07-10T11:09:01.718Z,8.90
2023-07-10T11:10:01.607Z,9.40
2023-07-10T11:11:01.587Z,7.60
2023-07-10T11:12:01.620Z,8.20
2023-07-10T11:13:01.610Z,7.40
2023-07-10T11:14:01.708Z,7.80
2023-07-10T11:15:01.607Z,7.80
2023-07-10T11:16:01.690Z,8.10
2023-07-10T11:17:01.581Z,7.00
2023-07-10T11:18:01.638Z,9.50
2023-07-10T11:19:01.556Z,8.10
2023-07-10T11:20:01.561Z,6.40
2023-07-10T11:21:01.476Z,8.30
2023-07-10T11:22:01.552Z,8.40
2023-07-10T11:23:01.512Z,7.00
2023-07-10T11:24:01.491Z,7.00
2023-07-10T11:25:01.486Z,5.90
2023-07-10T11:26:01.497Z,6.10
2023-07-10T11:27:01.482Z,5.90
2023-07-10T11:28:01.556Z,5.80
2023-07-10T11:29:08.549Z,7.90
2023-07-10T11:30:01.461Z,8.10
2023-07-10T11:31:01.484Z,7.40
2023-07-10T11:32:01.381Z,8.80
2023-07-10T11:33:01.390Z,7.20
2023-07-10T11:34:01.435Z,6.40
2023-07-10T11:35:14.408Z,7.10
2023-07-10T11:36:01.355Z,7.50
2023-07-10T11:37:01.353Z,6.80
2023-07-10T11:38:01.439Z,5.80
2023-07-10T11:39:01.376Z,6.00
2023-07-10T11:40:01.418Z,6.80
2023-07-10T11:41:01.317Z,7.30
2023-07-10T11:42:01.342Z,5.60
2023-07-10T11:43:01.258Z,7.00
2023-07-10T11:44:01.243Z,8.70
2023-07-10T11:45:01.326Z,6.20
2023-07-10T11:46:01.243Z,7.10
2023-07-10T11:47:01.261Z,5.10
2023-07-10T11:48:01.372Z,6.60
2023-07-10T11:49:01.235Z,6.90
2023-07-10T11:50:01.257Z,5.90
2023-07-10T11:51:01.212Z,7.10
2023-07-10T11:52:01.202Z,6.60
2023-07-10T11:53:01.138Z,7.10
2023-07-10T11:54:01.208Z,5.90
2023-07-10T11:55:01.221Z,7.20
2023-07-10T11:56:01.117Z,7.70
2023-07-10T11:57:01.139Z,6.10
2023-07-10T11:58:01.116Z,7.60
2023-07-10T11:59:01.130Z,7.70
2023-07-10T12:00:01.135Z,5.90
2023-07-10T12:01:02.322Z,4.90
2023-07-10T12:02:02.175Z,6.10
2023-07-10T12:03:01.252Z,6.50
2023-07-10T12:04:01.088Z,7.80
2023-07-10T12:05:01.018Z,6.10
2023-07-10T12:06:01.014Z,5.80
2023-07-10T12:07:01.014Z,7.70
2023-07-10T12:08:03.273Z,6.70
2023-07-10T12:09:01.118Z,7.10
2023-07-10T12:10:01.025Z,6.10
2023-07-10T12:11:01.024Z,7.20
2023-07-10T12:12:01.022Z,6.20
2023-07-10T12:13:00.988Z,6.20
2023-07-10T12:14:01.001Z,6.60
2023-07-10T12:15:00.994Z,7.90
2023-07-10T12:16:00.902Z,6.70
2023-07-10T12:17:26.326Z,9.40
2023-07-10T12:18:00.978Z,7.30
2023-07-10T12:19:01.005Z,10.50
2023-07-10T12:20:00.895Z,8.80
2023-07-10T12:21:00.908Z,9.40
2023-07-10T12:22:00.886Z,9.50
2023-07-10T12:23:00.889Z,7.60
2023-07-10T12:24:00.904Z,6.30
2023-07-10T12:25:00.879Z,7.60
2023-07-10T12:26:00.788Z,7.90
2023-07-10T12:28:22.745Z,6.40
2023-07-10T12:29:00.858Z,7.50
2023-07-10T12:30:00.769Z,7.40
2023-07-10T12:31:00.948Z,8.20
2023-07-10T12:32:00.777Z,7.20
2023-07-10T12:33:00.808Z,6.70
2023-07-10T12:34:00.791Z,8.80
2023-07-10T12:35:00.809Z,6.00
2023-07-10T12:36:00.737Z,6.20
2023-07-10T12:37:00.786Z,8.40
2023-07-10T12:38:00.710Z,6.80
2023-07-10T12:39:00.665Z,6.20
2023-07-10T12:40:00.760Z,5.60
2023-07-10T12:41:00.660Z,6.30
2023-07-10T12:42:00.660Z,5.50
2023-07-10T12:43:00.745Z,8.50
2023-07-10T12:44:00.660Z,7.60
2023-07-10T12:45:00.662Z,6.70
2023-07-10T12:46:00.669Z,7.10
2023-07-10T12:47:00.732Z,6.00
2023-07-10T12:48:00.667Z,6.40
2023-07-10T12:49:00.623Z,6.60
2023-07-10T12:50:00.576Z,6.50
2023-07-10T12:51:00.558Z,6.70
2023-07-10T12:52:00.626Z,6.70
2023-07-10T12:53:00.564Z,6.20
2023-07-10T12:54:00.538Z,6.40
2023-07-10T12:55:00.592Z,7.80
2023-07-10T12:56:08.345Z,6.80
2023-07-10T12:57:00.546Z,5.80
2023-07-10T12:58:00.504Z,8.00
2023-07-10T12:59:00.508Z,6.30
2023-07-10T13:00:00.512Z,7.10
2023-07-10T13:01:00.538Z,5.40
2023-07-10T13:02:00.427Z,6.60
2023-07-10T13:03:00.718Z,7.30
2023-07-10T13:04:00.513Z,5.80
2023-07-10T13:05:00.532Z,7.90
2023-07-10T13:06:00.439Z,4.60
2023-07-10T13:07:09.003Z,5.60